sensor_id;sensor_type;location;lat;lon;timestamp;P1;durP1;ratioP1;P2;durP2;ratioP2
12267;SDS011;6196;48.398;11.736;2022-09-21T00:01:18;3.03;;;1.70;;
12267;SDS011;6196;48.398;11.736;2022-09-21T00:03:54;2.47;;;1.60;;
12267;SDS011;6196;48.398;11.736;2022-09-21T00:06:28;2.57;;;2.00;;
12267;SDS011;6196;48.398;11.736;2022-09-21T00:08:57;3.93;;;1.90;;
12267;SDS011;6196;48.398;11.736;2022-09-21T00:11:26;4.33;;;1.90;;
12267;SDS011;6196;48.398;11.736;2022-09-21T00:13:55;4.13;;;1.90;;
12267;SDS011;6196;48.398;11.736;2022-09-21T00:16:26;4.53;;;1.80;;
12267;SDS011;6196;48.398;11.736;2022-09-21T00:18:53;2.83;;;2.23;;
12267;SDS011;6196;48.398;11.736;2022-09-21T00:21:20;1.93;;;1.70;;
12267;SDS011;6196;48.398;11.736;2022-09-21T00:23:48;2.40;;;1.67;;
12267;SDS011;6196;48.398;11.736;2022-09-21T00:26:19;1.60;;;1.50;;
12267;SDS011;6196;48.398;11.736;2022-09-21T00:28:58;4.43;;;1.60;;
12267;SDS011;6196;48.398;11.736;2022-09-21T00:31:27;3.13;;;1.80;;
12267;SDS011;6196;48.398;11.736;2022-09-21T00:33:56;2.63;;;1.83;;
12267;SDS011;6196;48.398;11.736;2022-09-21T00:36:25;2.63;;;1.77;;
12267;SDS011;6196;48.398;11.736;2022-09-21T00:38:57;2.00;;;1.80;;
12267;SDS011;6196;48.398;11.736;2022-09-21T00:41:27;1.73;;;1.63;;
12267;SDS011;6196;48.398;11.736;2022-09-21T00:47:02;2.47;;;1.93;;
12267;SDS011;6196;48.398;11.736;2022-09-21T00:49:35;2.13;;;1.73;;
12267;SDS011;6196;48.398;11.736;2022-09-21T00:52:02;1.80;;;1.70;;
12267;SDS011;6196;48.398;11.736;2022-09-21T00:54:33;2.30;;;1.77;;
12267;SDS011;6196;48.398;11.736;2022-09-21T00:57:22;2.73;;;2.20;;
12267;SDS011;6196;48.398;11.736;2022-09-21T00:59:53;2.43;;;1.73;;
12267;SDS011;6196;48.398;11.736;2022-09-21T01:02:23;3.33;;;1.90;;
12267;SDS011;6196;48.398;11.736;2022-09-21T01:04:51;2.23;;;1.63;;
12267;SDS011;6196;48.398;11.736;2022-09-21T01:07:20;2.10;;;1.87;;
12267;SDS011;6196;48.398;11.736;2022-09-21T01:09:53;1.97;;;1.63;;
12267;SDS011;6196;48.398;11.736;2022-09-21T01:17:59;2.30;;;2.00;;
12267;SDS011;6196;48.398;11.736;2022-09-21T01:24:07;3.43;;;2.20;;
12267;SDS011;6196;48.398;11.736;2022-09-21T01:27:24;2.83;;;2.40;;
12267;SDS011;6196;48.398;11.736;2022-09-21T01:30:17;2.87;;;2.13;;
12267;SDS011;6196;48.398;11.736;2022-09-21T01:32:47;4.30;;;2.53;;
12267;SDS011;6196;48.398;11.736;2022-09-21T01:35:42;2.90;;;2.70;;
12267;SDS011;6196;48.398;11.736;2022-09-21T01:38:24;5.03;;;2.50;;
12267;SDS011;6196;48.398;11.736;2022-09-21T01:40:58;4.90;;;2.33;;
12267;SDS011;6196;48.398;11.736;2022-09-21T01:43:34;3.87;;;2.50;;
12267;SDS011;6196;48.398;11.736;2022-09-21T01:46:04;4.00;;;2.20;;
12267;SDS011;6196;48.398;11.736;2022-09-21T01:48:39;3.20;;;2.43;;
12267;SDS011;6196;48.398;11.736;2022-09-21T01:51:10;3.07;;;2.60;;
12267;SDS011;6196;48.398;11.736;2022-09-21T01:53:41;2.77;;;2.40;;
12267;SDS011;6196;48.398;11.736;2022-09-21T01:56:36;3.00;;;2.43;;
12267;SDS011;6196;48.398;11.736;2022-09-21T01:59:10;2.70;;;2.13;;
12267;SDS011;6196;48.398;11.736;2022-09-21T02:01:57;2.93;;;2.53;;
12267;SDS011;6196;48.398;11.736;2022-09-21T02:04:35;2.53;;;2.23;;
12267;SDS011;6196;48.398;11.736;2022-09-21T02:07:03;4.77;;;2.30;;
12267;SDS011;6196;48.398;11.736;2022-09-21T02:09:31;2.80;;;2.10;;
12267;SDS011;6196;48.398;11.736;2022-09-21T02:12:00;2.30;;;2.10;;
12267;SDS011;6196;48.398;11.736;2022-09-21T02:14:27;3.73;;;2.23;;
12267;SDS011;6196;48.398;11.736;2022-09-21T02:17:20;3.40;;;1.70;;
12267;SDS011;6196;48.398;11.736;2022-09-21T02:20:06;2.80;;;2.23;;
12267;SDS011;6196;48.398;11.736;2022-09-21T02:25:52;2.60;;;2.00;;
12267;SDS011;6196;48.398;11.736;2022-09-21T02:32:10;2.00;;;1.60;;
12267;SDS011;6196;48.398;11.736;2022-09-21T02:34:47;1.40;;;1.30;;
12267;SDS011;6196;48.398;11.736;2022-09-21T02:37:34;2.90;;;1.73;;
12267;SDS011;6196;48.398;11.736;2022-09-21T02:40:28;2.10;;;1.70;;
12267;SDS011;6196;48.398;11.736;2022-09-21T02:43:43;2.10;;;1.90;;
12267;SDS011;6196;48.398;11.736;2022-09-21T02:45:58;2.43;;;1.80;;
12267;SDS011;6196;48.398;11.736;2022-09-21T02:48:31;4.13;;;2.30;;
12267;SDS011;6196;48.398;11.736;2022-09-21T02:51:22;2.50;;;2.27;;
12267;SDS011;6196;48.398;11.736;2022-09-21T02:53:56;2.07;;;1.67;;
12267;SDS011;6196;48.398;11.736;2022-09-21T02:56:29;2.03;;;1.67;;
12267;SDS011;6196;48.398;11.736;2022-09-21T02:58:58;2.07;;;1.33;;
12267;SDS011;6196;48.398;11.736;2022-09-21T03:01:29;1.67;;;1.50;;
12267;SDS011;6196;48.398;11.736;2022-09-21T03:03:58;2.03;;;1.63;;
12267;SDS011;6196;48.398;11.736;2022-09-21T03:06:25;2.17;;;1.97;;
12267;SDS011;6196;48.398;11.736;2022-09-21T03:08:52;3.10;;;1.37;;
12267;SDS011;6196;48.398;11.736;2022-09-21T03:11:19;1.43;;;1.33;;
12267;SDS011;6196;48.398;11.736;2022-09-21T03:13:46;1.83;;;1.73;;
12267;SDS011;6196;48.398;11.736;2022-09-21T03:16:12;1.93;;;1.73;;
12267;SDS011;6196;48.398;11.736;2022-09-21T03:18:39;1.10;;;1.00;;
12267;SDS011;6196;48.398;11.736;2022-09-21T03:21:08;1.67;;;1.03;;
12267;SDS011;6196;48.398;11.736;2022-09-21T03:23:35;0.90;;;0.90;;
12267;SDS011;6196;48.398;11.736;2022-09-21T03:26:02;1.00;;;0.90;;
12267;SDS011;6196;48.398;11.736;2022-09-21T03:28:30;1.77;;;1.47;;
12267;SDS011;6196;48.398;11.736;2022-09-21T03:30:56;2.37;;;1.90;;
12267;SDS011;6196;48.398;11.736;2022-09-21T03:33:23;1.80;;;1.70;;
12267;SDS011;6196;48.398;11.736;2022-09-21T03:35:50;2.57;;;2.00;;
12267;SDS011;6196;48.398;11.736;2022-09-21T03:38:18;2.57;;;1.97;;
12267;SDS011;6196;48.398;11.736;2022-09-21T03:40:47;4.00;;;2.00;;
12267;SDS011;6196;48.398;11.736;2022-09-21T03:43:14;2.20;;;2.00;;
12267;SDS011;6196;48.398;11.736;2022-09-21T03:45:42;3.00;;;1.93;;
12267;SDS011;6196;48.398;11.736;2022-09-21T03:48:10;2.10;;;1.90;;
12267;SDS011;6196;48.398;11.736;2022-09-21T03:50:37;3.43;;;1.90;;
12267;SDS011;6196;48.398;11.736;2022-09-21T03:53:04;3.23;;;1.77;;
12267;SDS011;6196;48.398;11.736;2022-09-21T03:55:32;1.47;;;1.37;;
12267;SDS011;6196;48.398;11.736;2022-09-21T03:57:59;1.60;;;1.50;;
12267;SDS011;6196;48.398;11.736;2022-09-21T04:00:27;3.23;;;2.00;;
12267;SDS011;6196;48.398;11.736;2022-09-21T04:02:54;1.80;;;1.70;;
12267;SDS011;6196;48.398;11.736;2022-09-21T04:05:22;1.90;;;1.73;;
12267;SDS011;6196;48.398;11.736;2022-09-21T04:07:49;1.40;;;1.30;;
12267;SDS011;6196;48.398;11.736;2022-09-21T04:10:19;1.20;;;1.10;;
12267;SDS011;6196;48.398;11.736;2022-09-21T04:12:58;1.83;;;1.00;;
12267;SDS011;6196;48.398;11.736;2022-09-21T04:15:26;1.10;;;1.00;;
12267;SDS011;6196;48.398;11.736;2022-09-21T04:17:54;0.80;;;0.80;;
12267;SDS011;6196;48.398;11.736;2022-09-21T04:20:22;2.07;;;1.00;;
12267;SDS011;6196;48.398;11.736;2022-09-21T04:22:49;1.20;;;1.10;;
12267;SDS011;6196;48.398;11.736;2022-09-21T04:25:17;1.20;;;1.10;;
12267;SDS011;6196;48.398;11.736;2022-09-21T04:27:45;1.43;;;1.10;;
12267;SDS011;6196;48.398;11.736;2022-09-21T04:30:13;1.83;;;1.00;;
12267;SDS011;6196;48.398;11.736;2022-09-21T04:32:41;1.10;;;1.00;;
12267;SDS011;6196;48.398;11.736;2022-09-21T04:35:09;1.07;;;1.00;;
12267;SDS011;6196;48.398;11.736;2022-09-21T04:37:36;1.27;;;1.10;;
12267;SDS011;6196;48.398;11.736;2022-09-21T04:40:03;1.40;;;0.97;;
12267;SDS011;6196;48.398;11.736;2022-09-21T04:42:31;3.27;;;1.70;;
12267;SDS011;6196;48.398;11.736;2022-09-21T04:44:58;2.70;;;1.93;;
12267;SDS011;6196;48.398;11.736;2022-09-21T04:47:25;2.60;;;2.40;;
12267;SDS011;6196;48.398;11.736;2022-09-21T04:49:54;8.53;;;2.97;;
12267;SDS011;6196;48.398;11.736;2022-09-21T04:52:21;3.23;;;2.43;;
12267;SDS011;6196;48.398;11.736;2022-09-21T04:54:48;2.83;;;2.60;;
12267;SDS011;6196;48.398;11.736;2022-09-21T04:57:15;2.60;;;2.40;;
12267;SDS011;6196;48.398;11.736;2022-09-21T04:59:42;2.70;;;2.50;;
12267;SDS011;6196;48.398;11.736;2022-09-21T05:02:09;4.63;;;2.50;;
12267;SDS011;6196;48.398;11.736;2022-09-21T05:04:35;4.03;;;2.93;;
12267;SDS011;6196;48.398;11.736;2022-09-21T05:07:02;3.40;;;3.10;;
12267;SDS011;6196;48.398;11.736;2022-09-21T05:09:29;4.40;;;2.87;;
12267;SDS011;6196;48.398;11.736;2022-09-21T05:12:14;4.10;;;3.00;;
12267;SDS011;6196;48.398;11.736;2022-09-21T05:14:41;3.77;;;2.50;;
12267;SDS011;6196;48.398;11.736;2022-09-21T05:17:10;4.90;;;2.40;;
12267;SDS011;6196;48.398;11.736;2022-09-21T05:19:37;2.97;;;2.53;;
12267;SDS011;6196;48.398;11.736;2022-09-21T05:22:05;3.27;;;2.00;;
12267;SDS011;6196;48.398;11.736;2022-09-21T05:24:31;2.07;;;1.77;;
12267;SDS011;6196;48.398;11.736;2022-09-21T05:26:59;3.57;;;2.00;;
12267;SDS011;6196;48.398;11.736;2022-09-21T05:29:26;3.63;;;1.90;;
12267;SDS011;6196;48.398;11.736;2022-09-21T05:39:53;2.93;;;2.27;;
12267;SDS011;6196;48.398;11.736;2022-09-21T05:42:20;2.67;;;2.07;;
12267;SDS011;6196;48.398;11.736;2022-09-21T05:44:47;2.83;;;2.30;;
12267;SDS011;6196;48.398;11.736;2022-09-21T05:47:21;2.70;;;2.40;;
12267;SDS011;6196;48.398;11.736;2022-09-21T05:50:04;3.73;;;2.47;;
12267;SDS011;6196;48.398;11.736;2022-09-21T05:55:58;2.50;;;1.90;;
12267;SDS011;6196;48.398;11.736;2022-09-21T06:03:46;2.73;;;2.23;;
12267;SDS011;6196;48.398;11.736;2022-09-21T06:06:16;4.07;;;2.57;;
12267;SDS011;6196;48.398;11.736;2022-09-21T06:08:44;3.43;;;2.80;;
12267;SDS011;6196;48.398;11.736;2022-09-21T06:11:11;3.67;;;3.03;;
12267;SDS011;6196;48.398;11.736;2022-09-21T06:13:39;4.50;;;3.07;;
12267;SDS011;6196;48.398;11.736;2022-09-21T06:16:06;4.40;;;3.30;;
12267;SDS011;6196;48.398;11.736;2022-09-21T06:18:37;4.20;;;3.40;;
12267;SDS011;6196;48.398;11.736;2022-09-21T06:21:08;4.33;;;3.93;;
12267;SDS011;6196;48.398;11.736;2022-09-21T06:23:35;4.63;;;3.77;;
12267;SDS011;6196;48.398;11.736;2022-09-21T06:26:02;3.03;;;2.70;;
12267;SDS011;6196;48.398;11.736;2022-09-21T06:28:29;3.83;;;3.33;;
12267;SDS011;6196;48.398;11.736;2022-09-21T06:30:56;3.00;;;2.67;;
12267;SDS011;6196;48.398;11.736;2022-09-21T06:33:23;3.00;;;2.40;;
12267;SDS011;6196;48.398;11.736;2022-09-21T06:35:54;2.60;;;2.17;;
12267;SDS011;6196;48.398;11.736;2022-09-21T06:38:22;2.80;;;2.20;;
12267;SDS011;6196;48.398;11.736;2022-09-21T06:40:50;4.60;;;2.10;;
12267;SDS011;6196;48.398;11.736;2022-09-21T06:43:18;2.77;;;2.10;;
12267;SDS011;6196;48.398;11.736;2022-09-21T06:45:52;2.00;;;1.80;;
12267;SDS011;6196;48.398;11.736;2022-09-21T06:48:23;3.23;;;1.83;;
12267;SDS011;6196;48.398;11.736;2022-09-21T06:50:58;2.70;;;2.27;;
12267;SDS011;6196;48.398;11.736;2022-09-21T06:53:27;3.30;;;3.00;;
12267;SDS011;6196;48.398;11.736;2022-09-21T06:56:02;3.70;;;3.07;;
12267;SDS011;6196;48.398;11.736;2022-09-21T06:58:31;4.13;;;3.73;;
12267;SDS011;6196;48.398;11.736;2022-09-21T07:01:09;6.77;;;5.07;;
12267;SDS011;6196;48.398;11.736;2022-09-21T07:03:38;6.20;;;4.80;;
12267;SDS011;6196;48.398;11.736;2022-09-21T07:06:06;6.57;;;4.33;;
12267;SDS011;6196;48.398;11.736;2022-09-21T07:08:36;5.33;;;4.50;;
12267;SDS011;6196;48.398;11.736;2022-09-21T07:11:24;6.07;;;4.60;;
12267;SDS011;6196;48.398;11.736;2022-09-21T07:13:52;5.37;;;4.50;;
12267;SDS011;6196;48.398;11.736;2022-09-21T07:16:20;5.17;;;4.17;;
12267;SDS011;6196;48.398;11.736;2022-09-21T07:18:47;6.90;;;4.87;;
12267;SDS011;6196;48.398;11.736;2022-09-21T07:21:14;4.50;;;4.10;;
12267;SDS011;6196;48.398;11.736;2022-09-21T07:23:41;6.20;;;4.87;;
12267;SDS011;6196;48.398;11.736;2022-09-21T07:26:09;4.97;;;3.93;;
12267;SDS011;6196;48.398;11.736;2022-09-21T07:28:38;6.53;;;4.23;;
12267;SDS011;6196;48.398;11.736;2022-09-21T07:31:05;4.20;;;3.33;;
12267;SDS011;6196;48.398;11.736;2022-09-21T07:33:35;4.73;;;3.90;;
12267;SDS011;6196;48.398;11.736;2022-09-21T07:36:02;4.40;;;3.60;;
12267;SDS011;6196;48.398;11.736;2022-09-21T07:38:36;4.30;;;3.63;;
12267;SDS011;6196;48.398;11.736;2022-09-21T07:41:05;5.23;;;2.77;;
12267;SDS011;6196;48.398;11.736;2022-09-21T07:43:33;3.07;;;1.93;;
12267;SDS011;6196;48.398;11.736;2022-09-21T07:46:00;1.90;;;1.60;;
12267;SDS011;6196;48.398;11.736;2022-09-21T07:48:27;2.23;;;1.60;;
12267;SDS011;6196;48.398;11.736;2022-09-21T07:50:59;2.07;;;1.53;;
12267;SDS011;6196;48.398;11.736;2022-09-21T07:53:34;1.93;;;1.37;;
12267;SDS011;6196;48.398;11.736;2022-09-21T07:56:03;1.50;;;1.40;;
12267;SDS011;6196;48.398;11.736;2022-09-21T07:58:42;2.07;;;1.67;;
12267;SDS011;6196;48.398;11.736;2022-09-21T08:01:27;3.97;;;1.87;;
12267;SDS011;6196;48.398;11.736;2022-09-21T08:03:55;2.73;;;1.87;;
12267;SDS011;6196;48.398;11.736;2022-09-21T08:06:24;2.20;;;2.00;;
12267;SDS011;6196;48.398;11.736;2022-09-21T08:08:53;2.70;;;1.90;;
12267;SDS011;6196;48.398;11.736;2022-09-21T08:11:23;2.77;;;1.30;;
12267;SDS011;6196;48.398;11.736;2022-09-21T08:13:51;2.30;;;1.60;;
12267;SDS011;6196;48.398;11.736;2022-09-21T08:16:20;1.63;;;1.30;;
12267;SDS011;6196;48.398;11.736;2022-09-21T08:18:48;1.63;;;1.20;;
12267;SDS011;6196;48.398;11.736;2022-09-21T08:21:16;1.50;;;1.33;;
12267;SDS011;6196;48.398;11.736;2022-09-21T08:23:44;1.30;;;1.20;;
12267;SDS011;6196;48.398;11.736;2022-09-21T08:26:15;1.60;;;1.40;;
12267;SDS011;6196;48.398;11.736;2022-09-21T08:28:45;1.50;;;1.30;;
12267;SDS011;6196;48.398;11.736;2022-09-21T08:31:20;1.20;;;1.10;;
12267;SDS011;6196;48.398;11.736;2022-09-21T08:33:48;1.30;;;1.20;;
12267;SDS011;6196;48.398;11.736;2022-09-21T08:36:16;3.90;;;1.10;;
12267;SDS011;6196;48.398;11.736;2022-09-21T08:38:44;3.43;;;1.33;;
12267;SDS011;6196;48.398;11.736;2022-09-21T08:44:14;1.43;;;1.10;;
12267;SDS011;6196;48.398;11.736;2022-09-21T08:46:49;1.17;;;0.97;;
12267;SDS011;6196;48.398;11.736;2022-09-21T08:49:38;2.53;;;0.97;;
12267;SDS011;6196;48.398;11.736;2022-09-21T08:52:15;1.20;;;1.10;;
12267;SDS011;6196;48.398;11.736;2022-09-21T08:54:53;2.00;;;1.40;;
12267;SDS011;6196;48.398;11.736;2022-09-21T08:57:27;1.70;;;1.30;;
12267;SDS011;6196;48.398;11.736;2022-09-21T08:59:56;2.27;;;1.70;;
12267;SDS011;6196;48.398;11.736;2022-09-21T09:05:17;1.63;;;1.33;;
12267;SDS011;6196;48.398;11.736;2022-09-21T09:11:15;1.03;;;0.80;;
12267;SDS011;6196;48.398;11.736;2022-09-21T09:22:26;1.10;;;0.60;;
12267;SDS011;6196;48.398;11.736;2022-09-21T09:25:02;1.10;;;0.87;;
12267;SDS011;6196;48.398;11.736;2022-09-21T09:35:35;1.33;;;0.77;;
12267;SDS011;6196;48.398;11.736;2022-09-21T09:50:28;2.17;;;0.90;;
12267;SDS011;6196;48.398;11.736;2022-09-21T09:53:21;1.20;;;0.57;;
12267;SDS011;6196;48.398;11.736;2022-09-21T09:55:49;1.57;;;0.90;;
12267;SDS011;6196;48.398;11.736;2022-09-21T10:01:34;1.47;;;0.90;;
12267;SDS011;6196;48.398;11.736;2022-09-21T10:04:09;1.93;;;1.00;;
12267;SDS011;6196;48.398;11.736;2022-09-21T10:06:39;1.77;;;0.90;;
12267;SDS011;6196;48.398;11.736;2022-09-21T10:11:51;1.73;;;1.10;;
12267;SDS011;6196;48.398;11.736;2022-09-21T10:14:23;1.30;;;1.10;;
12267;SDS011;6196;48.398;11.736;2022-09-21T10:16:52;2.67;;;1.20;;
12267;SDS011;6196;48.398;11.736;2022-09-21T10:19:24;1.93;;;0.93;;
12267;SDS011;6196;48.398;11.736;2022-09-21T10:21:54;2.27;;;1.10;;
12267;SDS011;6196;48.398;11.736;2022-09-21T10:24:28;2.27;;;1.30;;
12267;SDS011;6196;48.398;11.736;2022-09-21T10:29:50;1.70;;;0.90;;
12267;SDS011;6196;48.398;11.736;2022-09-21T10:32:17;1.43;;;0.90;;
12267;SDS011;6196;48.398;11.736;2022-09-21T10:37:40;1.27;;;1.00;;
12267;SDS011;6196;48.398;11.736;2022-09-21T10:42:48;1.83;;;1.10;;
12267;SDS011;6196;48.398;11.736;2022-09-21T10:45:21;2.30;;;1.23;;
12267;SDS011;6196;48.398;11.736;2022-09-21T10:47:58;3.40;;;1.13;;
12267;SDS011;6196;48.398;11.736;2022-09-21T10:50:40;1.90;;;1.23;;
12267;SDS011;6196;48.398;11.736;2022-09-21T10:53:27;1.10;;;1.00;;
12267;SDS011;6196;48.398;11.736;2022-09-21T10:55:57;2.53;;;1.17;;
12267;SDS011;6196;48.398;11.736;2022-09-21T11:01:51;1.57;;;1.10;;
12267;SDS011;6196;48.398;11.736;2022-09-21T11:06:53;2.80;;;1.00;;
12267;SDS011;6196;48.398;11.736;2022-09-21T11:09:34;1.13;;;1.03;;
12267;SDS011;6196;48.398;11.736;2022-09-21T11:17:57;2.73;;;1.30;;
12267;SDS011;6196;48.398;11.736;2022-09-21T11:21:12;1.97;;;1.03;;
12267;SDS011;6196;48.398;11.736;2022-09-21T11:24:02;2.57;;;1.20;;
12267;SDS011;6196;48.398;11.736;2022-09-21T11:27:01;3.40;;;1.20;;
12267;SDS011;6196;48.398;11.736;2022-09-21T11:38:11;1.80;;;0.80;;
12267;SDS011;6196;48.398;11.736;2022-09-21T12:00:19;1.50;;;1.10;;
12267;SDS011;6196;48.398;11.736;2022-09-21T12:05:47;1.10;;;1.00;;
12267;SDS011;6196;48.398;11.736;2022-09-21T12:45:45;1.20;;;1.00;;
12267;SDS011;6196;48.398;11.736;2022-09-21T12:48:35;1.10;;;1.00;;
12267;SDS011;6196;48.398;11.736;2022-09-21T12:51:12;1.40;;;0.93;;
12267;SDS011;6196;48.398;11.736;2022-09-21T12:54:04;3.23;;;1.10;;
12267;SDS011;6196;48.398;11.736;2022-09-21T12:57:02;1.67;;;1.00;;
12267;SDS011;6196;48.398;11.736;2022-09-21T13:00:04;1.43;;;1.20;;
12267;SDS011;6196;48.398;11.736;2022-09-21T13:03:28;1.43;;;1.13;;
12267;SDS011;6196;48.398;11.736;2022-09-21T13:08:38;1.57;;;0.90;;
12267;SDS011;6196;48.398;11.736;2022-09-21T13:11:09;2.33;;;1.20;;
12267;SDS011;6196;48.398;11.736;2022-09-21T13:19:00;1.10;;;1.00;;
12267;SDS011;6196;48.398;11.736;2022-09-21T13:21:30;2.13;;;1.20;;
12267;SDS011;6196;48.398;11.736;2022-09-21T13:23:59;3.23;;;1.20;;
12267;SDS011;6196;48.398;11.736;2022-09-21T13:26:32;1.40;;;1.00;;
12267;SDS011;6196;48.398;11.736;2022-09-21T13:29:02;2.00;;;1.00;;
12267;SDS011;6196;48.398;11.736;2022-09-21T13:34:31;2.80;;;1.40;;
12267;SDS011;6196;48.398;11.736;2022-09-21T13:47:45;1.00;;;0.90;;
12267;SDS011;6196;48.398;11.736;2022-09-21T13:53:16;1.63;;;1.03;;
12267;SDS011;6196;48.398;11.736;2022-09-21T13:55:59;1.13;;;1.00;;
12267;SDS011;6196;48.398;11.736;2022-09-21T13:58:35;2.33;;;1.20;;
12267;SDS011;6196;48.398;11.736;2022-09-21T14:01:12;1.07;;;0.80;;
12267;SDS011;6196;48.398;11.736;2022-09-21T14:04:14;1.20;;;1.00;;
12267;SDS011;6196;48.398;11.736;2022-09-21T14:07:03;0.93;;;0.80;;
12267;SDS011;6196;48.398;11.736;2022-09-21T14:09:42;1.00;;;0.90;;
12267;SDS011;6196;48.398;11.736;2022-09-21T14:12:22;2.37;;;1.00;;
12267;SDS011;6196;48.398;11.736;2022-09-21T14:15:09;1.83;;;0.90;;
12267;SDS011;6196;48.398;11.736;2022-09-21T14:21:15;2.00;;;1.00;;
12267;SDS011;6196;48.398;11.736;2022-09-21T14:26:46;1.65;;;0.80;;
12267;SDS011;6196;48.398;11.736;2022-09-21T14:32:20;0.82;;;0.81;;
12267;SDS011;6196;48.398;11.736;2022-09-21T14:34:52;1.08;;;0.70;;
12267;SDS011;6196;48.398;11.736;2022-09-21T14:37:27;1.13;;;0.90;;
12267;SDS011;6196;48.398;11.736;2022-09-21T14:40:15;0.77;;;0.75;;
12267;SDS011;6196;48.398;11.736;2022-09-21T14:42:53;1.05;;;0.68;;
12267;SDS011;6196;48.398;11.736;2022-09-21T14:45:35;1.08;;;0.98;;
12267;SDS011;6196;48.398;11.736;2022-09-21T14:48:49;1.58;;;1.05;;
12267;SDS011;6196;48.398;11.736;2022-09-21T14:51:49;3.15;;;1.40;;
12267;SDS011;6196;48.398;11.736;2022-09-21T15:12:37;1.77;;;0.98;;
12267;SDS011;6196;48.398;11.736;2022-09-21T15:18:47;1.20;;;0.90;;
12267;SDS011;6196;48.398;11.736;2022-09-21T15:21:24;1.50;;;1.40;;
12267;SDS011;6196;48.398;11.736;2022-09-21T15:23:54;2.08;;;1.00;;
12267;SDS011;6196;48.398;11.736;2022-09-21T15:26:22;1.63;;;1.27;;
12267;SDS011;6196;48.398;11.736;2022-09-21T15:28:58;1.48;;;1.13;;
12267;SDS011;6196;48.398;11.736;2022-09-21T15:31:36;1.50;;;0.98;;
12267;SDS011;6196;48.398;11.736;2022-09-21T15:34:05;1.42;;;0.90;;
12267;SDS011;6196;48.398;11.736;2022-09-21T15:36:36;2.05;;;1.00;;
12267;SDS011;6196;48.398;11.736;2022-09-21T15:39:05;0.70;;;0.70;;
12267;SDS011;6196;48.398;11.736;2022-09-21T15:41:44;2.27;;;1.00;;
12267;SDS011;6196;48.398;11.736;2022-09-21T15:44:17;1.43;;;1.03;;
12267;SDS011;6196;48.398;11.736;2022-09-21T15:46:50;1.50;;;0.90;;
12267;SDS011;6196;48.398;11.736;2022-09-21T15:49:23;0.97;;;0.90;;
12267;SDS011;6196;48.398;11.736;2022-09-21T15:51:52;1.40;;;1.03;;
12267;SDS011;6196;48.398;11.736;2022-09-21T15:54:52;1.40;;;1.30;;
12267;SDS011;6196;48.398;11.736;2022-09-21T15:57:35;1.47;;;1.10;;
12267;SDS011;6196;48.398;11.736;2022-09-21T16:00:16;2.00;;;1.23;;
12267;SDS011;6196;48.398;11.736;2022-09-21T16:05:32;1.20;;;0.93;;
12267;SDS011;6196;48.398;11.736;2022-09-21T16:10:47;0.80;;;0.80;;
12267;SDS011;6196;48.398;11.736;2022-09-21T16:16:08;3.37;;;2.20;;
12267;SDS011;6196;48.398;11.736;2022-09-21T16:21:30;10.00;;;8.60;;
12267;SDS011;6196;48.398;11.736;2022-09-21T16:24:09;6.03;;;4.07;;
12267;SDS011;6196;48.398;11.736;2022-09-21T16:26:58;3.57;;;2.97;;
12267;SDS011;6196;48.398;11.736;2022-09-21T16:29:37;2.77;;;2.03;;
12267;SDS011;6196;48.398;11.736;2022-09-21T16:34:44;7.00;;;6.03;;
12267;SDS011;6196;48.398;11.736;2022-09-21T16:39:49;5.63;;;3.43;;
12267;SDS011;6196;48.398;11.736;2022-09-21T16:42:24;9.67;;;8.27;;
12267;SDS011;6196;48.398;11.736;2022-09-21T16:44:58;12.37;;;10.97;;
12267;SDS011;6196;48.398;11.736;2022-09-21T16:47:26;7.80;;;6.63;;
12267;SDS011;6196;48.398;11.736;2022-09-21T16:49:54;3.50;;;3.10;;
12267;SDS011;6196;48.398;11.736;2022-09-21T16:52:28;2.77;;;2.47;;
12267;SDS011;6196;48.398;11.736;2022-09-21T16:54:55;3.10;;;2.10;;
12267;SDS011;6196;48.398;11.736;2022-09-21T16:57:24;1.53;;;1.43;;
12267;SDS011;6196;48.398;11.736;2022-09-21T16:59:51;2.70;;;1.30;;
12267;SDS011;6196;48.398;11.736;2022-09-21T17:02:18;2.60;;;1.27;;
12267;SDS011;6196;48.398;11.736;2022-09-21T17:04:45;1.87;;;1.50;;
12267;SDS011;6196;48.398;11.736;2022-09-21T17:07:13;1.13;;;0.87;;
12267;SDS011;6196;48.398;11.736;2022-09-21T17:09:42;1.70;;;1.20;;
12267;SDS011;6196;48.398;11.736;2022-09-21T17:12:14;1.83;;;0.83;;
12267;SDS011;6196;48.398;11.736;2022-09-21T17:14:43;2.13;;;1.00;;
12267;SDS011;6196;48.398;11.736;2022-09-21T17:19:46;1.77;;;1.20;;
12267;SDS011;6196;48.398;11.736;2022-09-21T17:22:17;2.13;;;1.00;;
12267;SDS011;6196;48.398;11.736;2022-09-21T17:24:45;1.10;;;0.97;;
12267;SDS011;6196;48.398;11.736;2022-09-21T17:27:18;1.10;;;1.00;;
12267;SDS011;6196;48.398;11.736;2022-09-21T17:29:47;1.30;;;1.13;;
12267;SDS011;6196;48.398;11.736;2022-09-21T17:32:16;1.10;;;0.80;;
12267;SDS011;6196;48.398;11.736;2022-09-21T17:34:53;1.33;;;1.13;;
12267;SDS011;6196;48.398;11.736;2022-09-21T17:37:38;1.07;;;0.90;;
12267;SDS011;6196;48.398;11.736;2022-09-21T17:40:05;4.00;;;1.10;;
12267;SDS011;6196;48.398;11.736;2022-09-21T17:42:40;1.00;;;0.90;;
12267;SDS011;6196;48.398;11.736;2022-09-21T17:48:12;1.50;;;1.10;;
12267;SDS011;6196;48.398;11.736;2022-09-21T17:50:46;1.90;;;1.00;;
12267;SDS011;6196;48.398;11.736;2022-09-21T17:53:15;1.00;;;0.90;;
12267;SDS011;6196;48.398;11.736;2022-09-21T17:56:13;1.27;;;0.90;;
12267;SDS011;6196;48.398;11.736;2022-09-21T18:01:30;1.30;;;1.20;;
12267;SDS011;6196;48.398;11.736;2022-09-21T18:04:07;2.27;;;1.70;;
12267;SDS011;6196;48.398;11.736;2022-09-21T18:06:38;1.20;;;1.10;;
12267;SDS011;6196;48.398;11.736;2022-09-21T18:09:05;1.50;;;1.20;;
12267;SDS011;6196;48.398;11.736;2022-09-21T18:14:44;1.47;;;1.30;;
12267;SDS011;6196;48.398;11.736;2022-09-21T18:17:31;2.03;;;1.20;;
12267;SDS011;6196;48.398;11.736;2022-09-21T18:20:22;1.60;;;1.10;;
12267;SDS011;6196;48.398;11.736;2022-09-21T18:25:58;4.90;;;1.50;;
12267;SDS011;6196;48.398;11.736;2022-09-21T18:28:34;1.90;;;1.43;;
12267;SDS011;6196;48.398;11.736;2022-09-21T18:31:27;1.20;;;1.10;;
12267;SDS011;6196;48.398;11.736;2022-09-21T18:43:28;3.07;;;2.50;;
12267;SDS011;6196;48.398;11.736;2022-09-21T18:52:11;6.60;;;1.60;;
12267;SDS011;6196;48.398;11.736;2022-09-21T18:55:23;2.10;;;1.47;;
12267;SDS011;6196;48.398;11.736;2022-09-21T18:57:55;1.77;;;1.30;;
12267;SDS011;6196;48.398;11.736;2022-09-21T19:00:25;1.50;;;1.40;;
12267;SDS011;6196;48.398;11.736;2022-09-21T19:02:59;1.60;;;1.20;;
12267;SDS011;6196;48.398;11.736;2022-09-21T19:05:56;2.17;;;1.27;;
12267;SDS011;6196;48.398;11.736;2022-09-21T19:11:12;1.83;;;1.50;;
12267;SDS011;6196;48.398;11.736;2022-09-21T19:16:50;1.33;;;1.23;;
12267;SDS011;6196;48.398;11.736;2022-09-21T19:25:42;3.27;;;1.50;;
12267;SDS011;6196;48.398;11.736;2022-09-21T19:28:34;3.47;;;2.00;;
12267;SDS011;6196;48.398;11.736;2022-09-21T19:31:20;3.63;;;1.77;;
12267;SDS011;6196;48.398;11.736;2022-09-21T19:33:47;2.23;;;1.60;;
12267;SDS011;6196;48.398;11.736;2022-09-21T19:36:17;2.00;;;1.80;;
12267;SDS011;6196;48.398;11.736;2022-09-21T19:38:45;3.53;;;1.60;;
12267;SDS011;6196;48.398;11.736;2022-09-21T19:50:14;3.13;;;1.97;;
12267;SDS011;6196;48.398;11.736;2022-09-21T19:52:45;2.93;;;2.50;;
12267;SDS011;6196;48.398;11.736;2022-09-21T19:55:16;3.57;;;2.70;;
12267;SDS011;6196;48.398;11.736;2022-09-21T19:58:04;3.67;;;2.70;;
12267;SDS011;6196;48.398;11.736;2022-09-21T20:00:51;4.73;;;2.80;;
12267;SDS011;6196;48.398;11.736;2022-09-21T20:03:28;3.87;;;2.77;;
12267;SDS011;6196;48.398;11.736;2022-09-21T20:08:51;2.20;;;2.00;;
12267;SDS011;6196;48.398;11.736;2022-09-21T20:11:45;2.57;;;2.37;;
12267;SDS011;6196;48.398;11.736;2022-09-21T20:14:33;6.07;;;2.87;;
12267;SDS011;6196;48.398;11.736;2022-09-21T20:17:10;3.90;;;2.87;;
12267;SDS011;6196;48.398;11.736;2022-09-21T20:20:05;3.50;;;2.87;;
12267;SDS011;6196;48.398;11.736;2022-09-21T20:22:41;3.47;;;3.17;;